BAW235 EGKK-LGAV
Flight info
| Callsign | BAW235 |
|---|---|
| Flight time | N/A |
| Altitude | 41000 |
| Route | ODVIK2Z/08R ODVIK Y311 DVR UL9 KONAN DCT KOK DCT RITAX DCT BANUX DCT BABEG DCT KUMOM DCT NIPEL DCT ABISO DCT NEMEK DCT ELTIB DCT PINDO DCT PIKOS UL607 XORKI |
| Aircraft | B772/H-SDE2E3FGHIJ5LORVWXY/LB1D1 |
Departure
| Time | N/A |
|---|---|
| Airport | London Gatwick Airport (EGKK) |
Arrival
| Time | 2026-05-07 13:29 |
|---|---|
| Airport | Athens Eleftherios Venizelos International Airport (LGAV) |
| Time | Latitude | Longitude | Altitude | Speed | Heading |
|---|---|---|---|---|---|
| 2026-05-07 12:28 | 43.02022 | 18.28173 | 41060 ft | 493 kts | 145° |
| 2026-05-07 12:29 | 42.99336 | 18.31152 | 41030 ft | 493 kts | 145° |
| 2026-05-07 12:29 | 42.94035 | 18.37026 | 41013 ft | 493 kts | 145° |
| 2026-05-07 12:30 | 42.88715 | 18.42903 | 41108 ft | 492 kts | 145° |
| 2026-05-07 12:30 | 42.83381 | 18.48780 | 41098 ft | 493 kts | 145° |
| 2026-05-07 12:31 | 42.78031 | 18.54662 | 41092 ft | 495 kts | 145° |
| 2026-05-07 12:31 | 42.72679 | 18.60534 | 41093 ft | 495 kts | 145° |
| 2026-05-07 12:32 | 42.67317 | 18.66404 | 41083 ft | 496 kts | 145° |
| 2026-05-07 12:32 | 42.61897 | 18.72322 | 41092 ft | 496 kts | 145° |
| 2026-05-07 12:33 | 42.53861 | 18.81073 | 41075 ft | 496 kts | 145° |
| 2026-05-07 12:33 | 42.48469 | 18.86928 | 41088 ft | 497 kts | 145° |
| 2026-05-07 12:34 | 42.43075 | 18.92774 | 41072 ft | 497 kts | 146° |
| 2026-05-07 12:34 | 42.37672 | 18.98613 | 41089 ft | 497 kts | 146° |
| 2026-05-07 12:35 | 42.32271 | 19.04437 | 41097 ft | 496 kts | 146° |
| 2026-05-07 12:35 | 42.26876 | 19.10244 | 41102 ft | 496 kts | 146° |
| 2026-05-07 12:36 | 42.21475 | 19.16043 | 41096 ft | 497 kts | 146° |
| 2026-05-07 12:36 | 42.16071 | 19.21831 | 41109 ft | 495 kts | 146° |
| 2026-05-07 12:37 | 42.10666 | 19.27606 | 41099 ft | 496 kts | 146° |
| 2026-05-07 12:37 | 42.05256 | 19.33376 | 41095 ft | 497 kts | 146° |
| 2026-05-07 12:38 | 41.99826 | 19.39155 | 41095 ft | 498 kts | 146° |
| 2026-05-07 12:38 | 41.94381 | 19.44936 | 41059 ft | 500 kts | 146° |
| 2026-05-07 12:39 | 41.88914 | 19.50726 | 41077 ft | 501 kts | 146° |
| 2026-05-07 12:39 | 41.83442 | 19.56509 | 41081 ft | 502 kts | 146° |
| 2026-05-07 12:40 | 41.77950 | 19.62301 | 41080 ft | 502 kts | 146° |
| 2026-05-07 12:40 | 41.72454 | 19.68085 | 41078 ft | 502 kts | 146° |
| 2026-05-07 12:41 | 41.66950 | 19.73864 | 41074 ft | 503 kts | 146° |
| 2026-05-07 12:41 | 41.61442 | 19.79633 | 41075 ft | 503 kts | 146° |
| 2026-05-07 12:42 | 41.55934 | 19.85390 | 41082 ft | 503 kts | 146° |
| 2026-05-07 12:42 | 41.50414 | 19.91148 | 41087 ft | 503 kts | 146° |
| 2026-05-07 12:43 | 41.44901 | 19.96882 | 41066 ft | 503 kts | 146° |
| 2026-05-07 12:43 | 41.39375 | 20.02619 | 41081 ft | 504 kts | 146° |
| 2026-05-07 12:44 | 41.33846 | 20.08346 | 41098 ft | 504 kts | 146° |
| 2026-05-07 12:44 | 41.28304 | 20.14075 | 41087 ft | 505 kts | 146° |
| 2026-05-07 12:45 | 41.22752 | 20.19800 | 41091 ft | 504 kts | 146° |
| 2026-05-07 12:45 | 41.17168 | 20.25549 | 41081 ft | 504 kts | 146° |
| 2026-05-07 12:46 | 41.11651 | 20.31214 | 41101 ft | 505 kts | 146° |
| 2026-05-07 12:46 | 41.06090 | 20.36911 | 41111 ft | 505 kts | 146° |
| 2026-05-07 12:47 | 41.00486 | 20.42638 | 41112 ft | 505 kts | 146° |
| 2026-05-07 12:47 | 40.94918 | 20.48318 | 41106 ft | 505 kts | 146° |
| 2026-05-07 12:48 | 40.89352 | 20.53985 | 41119 ft | 505 kts | 146° |
| 2026-05-07 12:48 | 40.83782 | 20.59643 | 41116 ft | 505 kts | 146° |
| 2026-05-07 12:49 | 40.78206 | 20.65293 | 41109 ft | 505 kts | 146° |
| 2026-05-07 12:49 | 40.72631 | 20.70931 | 41108 ft | 505 kts | 147° |
| 2026-05-07 12:50 | 40.67060 | 20.76553 | 41115 ft | 504 kts | 147° |
| 2026-05-07 12:50 | 40.61481 | 20.82171 | 41124 ft | 505 kts | 147° |
| 2026-05-07 12:51 | 40.55935 | 20.87743 | 41124 ft | 505 kts | 147° |
| 2026-05-07 12:51 | 40.50320 | 20.93376 | 41131 ft | 505 kts | 147° |
| 2026-05-07 12:52 | 40.44868 | 20.99110 | 41105 ft | 507 kts | 143° |
| 2026-05-07 12:52 | 40.39583 | 21.05282 | 41127 ft | 509 kts | 142° |
| 2026-05-07 12:53 | 40.34308 | 21.11477 | 41131 ft | 510 kts | 142° |
| 2026-05-07 12:53 | 40.28980 | 21.17633 | 41126 ft | 511 kts | 142° |
| 2026-05-07 12:54 | 40.23634 | 21.23757 | 41135 ft | 511 kts | 142° |
| 2026-05-07 12:54 | 40.18247 | 21.29912 | 41110 ft | 511 kts | 142° |
| 2026-05-07 12:55 | 40.12897 | 21.36018 | 41139 ft | 511 kts | 142° |
| 2026-05-07 12:55 | 40.07539 | 21.42122 | 41128 ft | 511 kts | 142° |
| 2026-05-07 12:56 | 40.02175 | 21.48220 | 41136 ft | 511 kts | 143° |
| 2026-05-07 12:56 | 39.96808 | 21.54309 | 41130 ft | 512 kts | 143° |
| 2026-05-07 12:57 | 39.91425 | 21.60395 | 41113 ft | 512 kts | 143° |
| 2026-05-07 12:57 | 39.86135 | 21.66635 | 41122 ft | 517 kts | 136° |
| 2026-05-07 12:58 | 39.81546 | 21.73903 | 41117 ft | 521 kts | 130° |
| 2026-05-07 12:58 | 39.77153 | 21.81393 | 41110 ft | 521 kts | 130° |
| 2026-05-07 12:59 | 39.72634 | 21.88764 | 41109 ft | 521 kts | 132° |
| 2026-05-07 12:59 | 39.68807 | 21.94793 | 41109 ft | 521 kts | 133° |
| 2026-05-07 13:00 | 39.64159 | 22.02026 | 40747 ft | 521 kts | 133° |
| 2026-05-07 13:00 | 39.61841 | 22.05630 | 40492 ft | 520 kts | 133° |
| 2026-05-07 13:00 | 39.59520 | 22.09240 | 40257 ft | 524 kts | 133° |
| 2026-05-07 13:01 | 39.57177 | 22.12884 | 40018 ft | 526 kts | 133° |
| 2026-05-07 13:01 | 39.54832 | 22.16531 | 39797 ft | 527 kts | 133° |
| 2026-05-07 13:01 | 39.52487 | 22.20177 | 39578 ft | 527 kts | 133° |
| 2026-05-07 13:01 | 39.50141 | 22.23822 | 39340 ft | 526 kts | 133° |
| 2026-05-07 13:02 | 39.47797 | 22.27460 | 39102 ft | 526 kts | 133° |
| 2026-05-07 13:02 | 39.45456 | 22.31087 | 38879 ft | 525 kts | 133° |
| 2026-05-07 13:02 | 39.43119 | 22.34705 | 38515 ft | 526 kts | 133° |
| 2026-05-07 13:02 | 39.40766 | 22.38340 | 38098 ft | 526 kts | 133° |
| 2026-05-07 13:03 | 39.38422 | 22.41959 | 37700 ft | 525 kts | 133° |
| 2026-05-07 13:03 | 39.36079 | 22.45571 | 37302 ft | 524 kts | 133° |
| 2026-05-07 13:03 | 39.33744 | 22.49168 | 36906 ft | 520 kts | 133° |
| 2026-05-07 13:03 | 39.31431 | 22.52728 | 36500 ft | 517 kts | 133° |
| 2026-05-07 13:04 | 39.29103 | 22.56304 | 36124 ft | 525 kts | 133° |
| 2026-05-07 13:04 | 39.26742 | 22.59922 | 35773 ft | 528 kts | 133° |
| 2026-05-07 13:04 | 39.24388 | 22.63530 | 35409 ft | 527 kts | 133° |
| 2026-05-07 13:04 | 39.22028 | 22.67146 | 35029 ft | 524 kts | 133° |
| 2026-05-07 13:05 | 39.19687 | 22.70729 | 34682 ft | 522 kts | 133° |
| 2026-05-07 13:05 | 39.17346 | 22.74309 | 34331 ft | 520 kts | 133° |
| 2026-05-07 13:05 | 39.15021 | 22.77859 | 33970 ft | 519 kts | 133° |
| 2026-05-07 13:05 | 39.12696 | 22.81403 | 33574 ft | 516 kts | 133° |
| 2026-05-07 13:06 | 39.10390 | 22.84916 | 33160 ft | 513 kts | 133° |
| 2026-05-07 13:06 | 39.08080 | 22.88428 | 32782 ft | 516 kts | 133° |
| 2026-05-07 13:06 | 39.05751 | 22.91964 | 32405 ft | 519 kts | 132° |
| 2026-05-07 13:06 | 39.03431 | 22.95485 | 31855 ft | 511 kts | 132° |
| 2026-05-07 13:07 | 39.01151 | 22.98946 | 31244 ft | 503 kts | 132° |
| 2026-05-07 13:07 | 38.98907 | 23.02350 | 30630 ft | 497 kts | 133° |
| 2026-05-07 13:07 | 38.96675 | 23.05728 | 29980 ft | 492 kts | 133° |
| 2026-05-07 13:07 | 38.94476 | 23.09050 | 29304 ft | 486 kts | 133° |
| 2026-05-07 13:08 | 38.92303 | 23.12329 | 28631 ft | 480 kts | 133° |
| 2026-05-07 13:08 | 38.90152 | 23.15572 | 27967 ft | 474 kts | 133° |
| 2026-05-07 13:08 | 38.88024 | 23.18778 | 27310 ft | 469 kts | 133° |
| 2026-05-07 13:08 | 38.85918 | 23.21947 | 26674 ft | 464 kts | 133° |
| 2026-05-07 13:09 | 38.83834 | 23.25081 | 26067 ft | 459 kts | 133° |
| 2026-05-07 13:09 | 38.81772 | 23.28178 | 25464 ft | 455 kts | 133° |
| 2026-05-07 13:09 | 38.79724 | 23.31251 | 24869 ft | 451 kts | 133° |
| 2026-05-07 13:09 | 38.77635 | 23.34208 | 24280 ft | 444 kts | 139° |
| 2026-05-07 13:10 | 38.75350 | 23.36821 | 23722 ft | 438 kts | 143° |
| 2026-05-07 13:10 | 38.73002 | 23.39285 | 23057 ft | 435 kts | 144° |
| 2026-05-07 13:10 | 38.70646 | 23.41703 | 22389 ft | 432 kts | 144° |
| 2026-05-07 13:10 | 38.68300 | 23.44089 | 21759 ft | 429 kts | 144° |
| 2026-05-07 13:11 | 38.65966 | 23.46451 | 21132 ft | 427 kts | 145° |
| 2026-05-07 13:11 | 38.63642 | 23.48797 | 20506 ft | 424 kts | 145° |
| 2026-05-07 13:11 | 38.61327 | 23.51134 | 19906 ft | 422 kts | 145° |
| 2026-05-07 13:11 | 38.59027 | 23.53460 | 19316 ft | 419 kts | 145° |
| 2026-05-07 13:12 | 38.56754 | 23.55762 | 18717 ft | 416 kts | 145° |
| 2026-05-07 13:12 | 38.54493 | 23.58055 | 18037 ft | 415 kts | 145° |
| 2026-05-07 13:12 | 38.52273 | 23.60309 | 17231 ft | 399 kts | 145° |
| 2026-05-07 13:12 | 38.50145 | 23.62471 | 16466 ft | 383 kts | 145° |
| 2026-05-07 13:13 | 38.48085 | 23.64560 | 15707 ft | 373 kts | 145° |
| 2026-05-07 13:13 | 38.46072 | 23.66595 | 14992 ft | 367 kts | 144° |
| 2026-05-07 13:13 | 38.44080 | 23.68595 | 14291 ft | 363 kts | 144° |
| 2026-05-07 13:13 | 38.42069 | 23.70593 | 13566 ft | 371 kts | 144° |
| 2026-05-07 13:14 | 38.40017 | 23.72603 | 12807 ft | 368 kts | 144° |
| 2026-05-07 13:14 | 38.38020 | 23.74543 | 12032 ft | 354 kts | 144° |
| 2026-05-07 13:14 | 38.36089 | 23.76390 | 11507 ft | 337 kts | 144° |
| 2026-05-07 13:14 | 38.34215 | 23.78155 | 11306 ft | 335 kts | 145° |
| 2026-05-07 13:15 | 38.32330 | 23.79922 | 11156 ft | 336 kts | 145° |
| 2026-05-07 13:15 | 38.30465 | 23.81666 | 11044 ft | 331 kts | 145° |
| 2026-05-07 13:15 | 38.28598 | 23.83409 | 10544 ft | 336 kts | 145° |
| 2026-05-07 13:15 | 38.26698 | 23.85181 | 9993 ft | 340 kts | 145° |
| 2026-05-07 13:16 | 38.24832 | 23.86912 | 9325 ft | 324 kts | 144° |
| 2026-05-07 13:16 | 38.23051 | 23.88558 | 8685 ft | 310 kts | 145° |
| 2026-05-07 13:16 | 38.21334 | 23.90139 | 8059 ft | 299 kts | 145° |
| 2026-05-07 13:16 | 38.19688 | 23.91677 | 7439 ft | 287 kts | 145° |
| 2026-05-07 13:17 | 38.18090 | 23.93171 | 7210 ft | 285 kts | 145° |
| 2026-05-07 13:17 | 38.16486 | 23.94656 | 7033 ft | 285 kts | 145° |
| 2026-05-07 13:17 | 38.14901 | 23.96131 | 6979 ft | 280 kts | 145° |
| 2026-05-07 13:17 | 38.13329 | 23.97598 | 6944 ft | 281 kts | 144° |
| 2026-05-07 13:18 | 38.11750 | 23.99072 | 6557 ft | 280 kts | 145° |
| 2026-05-07 13:18 | 38.10210 | 24.00508 | 6030 ft | 270 kts | 145° |
| 2026-05-07 13:18 | 38.08728 | 24.01907 | 5524 ft | 261 kts | 145° |
| 2026-05-07 13:18 | 38.07299 | 24.03289 | 5016 ft | 256 kts | 144° |
| 2026-05-07 13:19 | 38.05887 | 24.04638 | 4539 ft | 256 kts | 145° |
| 2026-05-07 13:19 | 38.04454 | 24.06017 | 4142 ft | 259 kts | 144° |
| 2026-05-07 13:19 | 38.03038 | 24.07367 | 4057 ft | 250 kts | 146° |
| 2026-05-07 13:19 | 38.01687 | 24.08692 | 4000 ft | 242 kts | 145° |
| 2026-05-07 13:20 | 38.00364 | 24.09996 | 3999 ft | 242 kts | 145° |
| 2026-05-07 13:20 | 37.99044 | 24.11382 | 4001 ft | 246 kts | 135° |
| 2026-05-07 13:20 | 37.98224 | 24.13304 | 4010 ft | 259 kts | 106° |
| 2026-05-07 13:20 | 37.98219 | 24.15601 | 3854 ft | 268 kts | 77° |
| 2026-05-07 13:21 | 37.99074 | 24.17686 | 3591 ft | 269 kts | 48° |
| 2026-05-07 13:21 | 38.00551 | 24.18987 | 3329 ft | 253 kts | 18° |
| 2026-05-07 13:21 | 38.02217 | 24.19277 | 3090 ft | 232 kts | 353° |
| 2026-05-07 13:21 | 38.03723 | 24.18798 | 3016 ft | 220 kts | 336° |
| 2026-05-07 13:22 | 38.05165 | 24.18084 | 3015 ft | 224 kts | 335° |
| 2026-05-07 13:22 | 38.06609 | 24.17356 | 2995 ft | 221 kts | 335° |
| 2026-05-07 13:22 | 38.08009 | 24.16648 | 2974 ft | 212 kts | 335° |
| 2026-05-07 13:22 | 38.09230 | 24.15707 | 2977 ft | 203 kts | 307° |
| 2026-05-07 13:23 | 38.09788 | 24.14136 | 3005 ft | 194 kts | 273° |
| 2026-05-07 13:23 | 38.10070 | 24.12459 | 3007 ft | 203 kts | 293° |
| 2026-05-07 13:23 | 38.10714 | 24.10899 | 3001 ft | 197 kts | 276° |
| 2026-05-07 13:23 | 38.10455 | 24.09231 | 2708 ft | 189 kts | 237° |
| 2026-05-07 13:24 | 38.09592 | 24.08079 | 2835 ft | 180 kts | 218° |
| 2026-05-07 13:24 | 38.08537 | 24.07169 | 2910 ft | 186 kts | 211° |
| 2026-05-07 13:24 | 38.07388 | 24.06404 | 2985 ft | 189 kts | 210° |
| 2026-05-07 13:24 | 38.06312 | 24.05447 | 2984 ft | 188 kts | 217° |
| 2026-05-07 13:25 | 38.05282 | 24.04441 | 2844 ft | 186 kts | 217° |
| 2026-05-07 13:25 | 38.04293 | 24.03490 | 2622 ft | 171 kts | 218° |
| 2026-05-07 13:25 | 38.03365 | 24.02600 | 2394 ft | 165 kts | 216° |
| 2026-05-07 13:25 | 38.02465 | 24.01739 | 2187 ft | 158 kts | 216° |
| 2026-05-07 13:26 | 38.01600 | 24.00912 | 1986 ft | 150 kts | 215° |
| 2026-05-07 13:26 | 38.00839 | 24.00183 | 1794 ft | 127 kts | 216° |
| 2026-05-07 13:26 | 38.00144 | 23.99519 | 1661 ft | 125 kts | 215° |
| 2026-05-07 13:26 | 37.99444 | 23.98851 | 1452 ft | 127 kts | 214° |
| 2026-05-07 13:27 | 37.98741 | 23.98179 | 1291 ft | 128 kts | 215° |
| 2026-05-07 13:27 | 37.98031 | 23.97501 | 1154 ft | 128 kts | 213° |
| 2026-05-07 13:27 | 37.97327 | 23.96830 | 945 ft | 124 kts | 217° |
| 2026-05-07 13:27 | 37.96654 | 23.96198 | 806 ft | 120 kts | 219° |
| 2026-05-07 13:28 | 37.95996 | 23.95558 | 646 ft | 124 kts | 216° |
| 2026-05-07 13:28 | 37.95320 | 23.94912 | 477 ft | 122 kts | 217° |
| 2026-05-07 13:28 | 37.94630 | 23.94254 | 326 ft | 125 kts | 217° |
| 2026-05-07 13:28 | 37.93985 | 23.93638 | 293 ft | 102 kts | 217° |
| 2026-05-07 13:29 | 37.93543 | 23.93214 | 286 ft | 58 kts | 217° |
| 2026-05-07 13:29 | 37.93342 | 23.93020 | 281 ft | 22 kts | 217° |
| 2026-05-07 13:29 | 37.93178 | 23.92887 | 278 ft | 34 kts | 205° |
| 2026-05-07 13:29 | 37.92962 | 23.92832 | 277 ft | 22 kts | 154° |
| 2026-05-07 13:30 | 37.93009 | 23.92978 | 278 ft | 33 kts | 27° |
| 2026-05-07 13:30 | 37.93227 | 23.93191 | 281 ft | 49 kts | 39° |
| 2026-05-07 13:30 | 37.93417 | 23.93384 | 286 ft | 24 kts | 62° |
| 2026-05-07 13:30 | 37.93353 | 23.93565 | 285 ft | 24 kts | 127° |
| 2026-05-07 13:31 | 37.93255 | 23.93731 | 287 ft | 24 kts | 128° |
| 2026-05-07 13:31 | 37.93156 | 23.93898 | 288 ft | 24 kts | 126° |
| 2026-05-07 13:31 | 37.93058 | 23.94063 | 295 ft | 24 kts | 127° |
| 2026-05-07 13:31 | 37.92960 | 23.94226 | 297 ft | 20 kts | 127° |
| 2026-05-07 13:32 | 37.92892 | 23.94374 | 296 ft | 20 kts | 91° |
| 2026-05-07 13:32 | 37.92982 | 23.94501 | 297 ft | 20 kts | 37° |